createdAt,value
2022-12-31T00:00:41.868Z,1.70
2022-12-31T00:03:27.386Z,2.09
2022-12-31T00:06:35.189Z,2.87
2022-12-31T00:09:20.469Z,1.83
2022-12-31T00:12:06.753Z,2.64
2022-12-31T00:14:52.258Z,2.94
2022-12-31T00:17:37.575Z,2.90
2022-12-31T00:20:22.961Z,2.82
2022-12-31T00:23:10.231Z,2.69
2022-12-31T00:25:55.760Z,2.90
2022-12-31T00:28:41.908Z,2.84
2022-12-31T00:31:33.256Z,1.50
2022-12-31T00:34:18.928Z,2.82
2022-12-31T00:37:04.512Z,1.72
2022-12-31T00:39:49.816Z,1.48
2022-12-31T00:42:35.045Z,1.36
2022-12-31T00:45:20.317Z,2.66
2022-12-31T00:48:05.940Z,1.29
2022-12-31T00:50:51.952Z,2.51
2022-12-31T00:53:38.059Z,2.63
2022-12-31T00:56:26.171Z,1.56
2022-12-31T00:59:11.449Z,2.62
2022-12-31T01:01:56.884Z,0.92
2022-12-31T01:04:42.700Z,1.88
2022-12-31T01:07:28.154Z,1.42
2022-12-31T01:10:33.501Z,1.30
2022-12-31T01:13:19.184Z,2.33
2022-12-31T01:16:13.379Z,2.18
2022-12-31T01:19:01.013Z,2.06
2022-12-31T01:21:47.698Z,0.94
2022-12-31T01:24:33.206Z,0.45
2022-12-31T01:27:18.560Z,0.49
2022-12-31T01:30:05.688Z,1.53
2022-12-31T01:32:51.109Z,0.81
2022-12-31T01:35:36.912Z,1.39
2022-12-31T01:38:22.437Z,0.47
2022-12-31T01:41:11.205Z,1.87
2022-12-31T01:44:03.026Z,1.50
2022-12-31T01:46:52.160Z,1.74
2022-12-31T01:49:52.838Z,2.08
2022-12-31T01:52:42.410Z,1.33
2022-12-31T01:55:52.764Z,1.99
2022-12-31T01:58:45.905Z,0.48
2022-12-31T02:01:32.987Z,1.59
2022-12-31T02:04:18.981Z,1.99
2022-12-31T02:07:07.049Z,1.95
2022-12-31T02:09:53.629Z,1.57
2022-12-31T02:12:40.025Z,1.63
2022-12-31T02:16:15.091Z,2.01
2022-12-31T02:19:00.442Z,1.93
2022-12-31T02:22:03.280Z,1.84
2022-12-31T02:25:06.712Z,1.77
2022-12-31T02:28:07.417Z,1.72
2022-12-31T02:31:12.105Z,1.55
2022-12-31T02:34:18.516Z,0.17
2022-12-31T02:37:08.959Z,0.69
2022-12-31T02:39:55.159Z,0.25
2022-12-31T02:42:40.689Z,1.68
2022-12-31T02:45:36.212Z,1.36
2022-12-31T02:48:58.557Z,1.73
2022-12-31T02:51:50.093Z,1.71
2022-12-31T02:54:55.660Z,0.35
2022-12-31T02:58:02.860Z,1.65
2022-12-31T03:01:14.777Z,1.64
2022-12-31T03:04:23.889Z,0.82
2022-12-31T03:07:18.254Z,0.94
2022-12-31T03:10:04.027Z,0.92
2022-12-31T03:12:49.739Z,0.52
2022-12-31T03:15:35.190Z,1.66
2022-12-31T03:18:43.355Z,1.51
2022-12-31T03:21:47.440Z,0.21
2022-12-31T03:24:51.436Z,1.34
2022-12-31T03:27:36.836Z,1.34
2022-12-31T03:30:23.216Z,-0.87
2022-12-31T03:33:09.108Z,0.19
2022-12-31T03:35:54.717Z,1.56
2022-12-31T03:38:40.764Z,1.66
2022-12-31T03:41:26.522Z,1.29
2022-12-31T03:44:11.819Z,0.27
2022-12-31T03:46:57.231Z,0.52
2022-12-31T03:49:42.559Z,1.27
2022-12-31T03:52:27.867Z,-0.05
2022-12-31T03:55:14.061Z,0.93
2022-12-31T03:57:59.330Z,0.66
2022-12-31T04:00:44.871Z,1.04
2022-12-31T04:03:30.055Z,0.79
2022-12-31T04:06:15.558Z,0.27
2022-12-31T04:09:00.939Z,0.85
2022-12-31T04:11:46.405Z,0.83
2022-12-31T04:14:32.454Z,1.22
2022-12-31T04:17:17.826Z,1.13
2022-12-31T04:20:03.817Z,-0.24
2022-12-31T04:22:49.352Z,0.80
2022-12-31T04:25:34.623Z,1.14
2022-12-31T04:28:20.031Z,1.07
2022-12-31T04:31:05.469Z,-0.03
2022-12-31T04:33:51.161Z,0.41
2022-12-31T04:36:36.580Z,-0.77
2022-12-31T04:39:22.134Z,0.49
2022-12-31T04:42:08.062Z,-0.51
2022-12-31T04:44:53.413Z,0.96
2022-12-31T04:47:38.868Z,-0.42
2022-12-31T04:50:24.320Z,-0.17
2022-12-31T04:53:09.587Z,-0.37
2022-12-31T04:55:55.183Z,0.23
2022-12-31T04:58:40.841Z,1.15
2022-12-31T05:01:26.520Z,0.72
2022-12-31T05:04:12.423Z,0.55
2022-12-31T05:06:58.111Z,1.23
2022-12-31T05:09:43.512Z,-0.12
2022-12-31T05:12:28.850Z,1.09
2022-12-31T05:15:14.408Z,-0.02
2022-12-31T05:17:59.892Z,-0.15
2022-12-31T05:20:46.317Z,0.90
2022-12-31T05:23:31.785Z,0.06
2022-12-31T05:26:17.471Z,-0.04
2022-12-31T05:29:02.968Z,-0.16
2022-12-31T05:31:48.248Z,0.03
2022-12-31T05:34:33.666Z,1.44
2022-12-31T05:37:18.993Z,1.47
2022-12-31T05:40:05.248Z,1.54
2022-12-31T05:42:50.852Z,1.52
2022-12-31T05:45:36.461Z,0.49
2022-12-31T05:48:22.137Z,1.30
2022-12-31T05:51:07.921Z,1.30
2022-12-31T05:53:53.514Z,1.54
2022-12-31T05:56:39.297Z,1.55
2022-12-31T05:59:24.762Z,1.60
2022-12-31T06:02:10.116Z,1.23
2022-12-31T06:04:55.567Z,1.52
2022-12-31T06:07:40.917Z,0.60
2022-12-31T06:10:26.272Z,1.52
2022-12-31T06:13:11.726Z,1.32
2022-12-31T06:15:57.183Z,1.26
2022-12-31T06:18:42.601Z,1.41
2022-12-31T06:21:29.618Z,1.46
2022-12-31T06:24:15.255Z,-0.02
2022-12-31T06:27:00.506Z,0.05
2022-12-31T06:29:46.177Z,1.18
2022-12-31T06:32:31.525Z,1.14
2022-12-31T06:35:17.220Z,0.27
2022-12-31T06:38:02.665Z,1.34
2022-12-31T06:40:48.381Z,1.47
2022-12-31T06:43:38.229Z,1.17
2022-12-31T06:46:24.800Z,1.82
2022-12-31T06:49:10.673Z,1.41
2022-12-31T06:51:56.003Z,1.36
2022-12-31T06:54:41.988Z,0.74
2022-12-31T06:57:27.989Z,2.08
2022-12-31T07:00:14.323Z,2.10
2022-12-31T07:03:24.593Z,2.23
2022-12-31T07:06:16.328Z,1.78
2022-12-31T07:09:13.242Z,0.92
2022-12-31T07:12:23.217Z,2.44
2022-12-31T07:15:15.087Z,2.49
2022-12-31T07:18:16.076Z,2.48
2022-12-31T07:21:01.827Z,2.55
2022-12-31T07:23:47.759Z,2.52
2022-12-31T07:27:08.310Z,2.62
2022-12-31T07:30:15.913Z,2.67
2022-12-31T07:33:05.216Z,2.71
2022-12-31T07:36:14.631Z,2.75
2022-12-31T07:39:22.539Z,2.28
2022-12-31T07:42:57.689Z,2.87
2022-12-31T07:45:55.393Z,2.92
2022-12-31T07:48:41.581Z,2.99
2022-12-31T07:51:28.056Z,2.98
2022-12-31T07:54:14.478Z,2.73
2022-12-31T07:57:00.054Z,3.09
2022-12-31T08:00:05.644Z,2.05
2022-12-31T08:03:22.742Z,1.90
2022-12-31T08:06:17.304Z,3.35
2022-12-31T08:09:09.852Z,2.94
2022-12-31T08:11:58.359Z,3.55
2022-12-31T08:14:47.739Z,3.56
2022-12-31T08:17:34.226Z,3.16
2022-12-31T08:20:20.138Z,3.45
2022-12-31T08:23:05.475Z,3.87
2022-12-31T08:26:03.792Z,4.01
2022-12-31T08:28:55.100Z,4.11
2022-12-31T08:31:51.047Z,3.76
2022-12-31T08:34:52.019Z,4.27
2022-12-31T08:38:01.880Z,4.00
2022-12-31T08:40:59.837Z,3.04
2022-12-31T08:43:45.206Z,4.38
2022-12-31T08:47:08.532Z,4.43
2022-12-31T08:49:55.620Z,4.24
2022-12-31T08:52:41.840Z,2.96
2022-12-31T08:55:27.891Z,4.44
2022-12-31T08:58:19.641Z,4.52
2022-12-31T09:01:08.395Z,4.57
2022-12-31T09:04:11.786Z,4.61
2022-12-31T09:07:01.562Z,3.59
2022-12-31T09:10:16.503Z,3.74
2022-12-31T09:13:40.490Z,4.86
2022-12-31T09:16:37.428Z,4.64
2022-12-31T09:19:23.300Z,3.97
2022-12-31T09:22:10.912Z,5.56
2022-12-31T09:24:57.404Z,5.93
2022-12-31T09:28:05.608Z,6.27
2022-12-31T09:31:08.173Z,6.63
2022-12-31T09:34:06.765Z,6.90
2022-12-31T09:36:59.111Z,5.70
2022-12-31T09:39:48.760Z,4.45
2022-12-31T09:43:12.147Z,7.68
2022-12-31T09:46:16.203Z,7.98
2022-12-31T09:49:30.816Z,7.08
2022-12-31T09:52:35.584Z,8.47
2022-12-31T09:55:51.493Z,8.40
2022-12-31T09:58:58.255Z,8.78
2022-12-31T10:02:02.859Z,8.87
2022-12-31T10:04:48.965Z,8.90
2022-12-31T10:08:13.292Z,8.94
2022-12-31T10:11:05.799Z,7.78
2022-12-31T10:14:18.499Z,8.58
2022-12-31T10:17:22.400Z,7.84
2022-12-31T10:20:23.702Z,9.03
2022-12-31T10:23:21.402Z,9.07
2022-12-31T10:26:41.713Z,9.12
2022-12-31T10:29:47.054Z,9.18
2022-12-31T10:33:03.674Z,9.24
2022-12-31T10:36:05.233Z,8.70
2022-12-31T10:39:20.471Z,9.38
2022-12-31T10:42:40.543Z,9.49
2022-12-31T10:45:44.999Z,9.54
2022-12-31T10:49:11.172Z,8.41
2022-12-31T10:52:41.420Z,9.68
2022-12-31T10:55:45.188Z,9.77
2022-12-31T10:58:42.635Z,9.82
2022-12-31T11:01:34.228Z,8.83
2022-12-31T11:04:38.811Z,9.84
2022-12-31T11:07:39.462Z,9.91
2022-12-31T11:10:43.401Z,9.93
2022-12-31T11:13:42.587Z,9.96
2022-12-31T11:17:04.614Z,9.98
2022-12-31T11:19:59.459Z,10.05
2022-12-31T11:23:00.435Z,10.05
2022-12-31T11:26:01.299Z,10.10
2022-12-31T11:28:55.823Z,10.26
2022-12-31T11:32:11.900Z,9.13
2022-12-31T11:35:08.355Z,10.35
2022-12-31T11:38:34.995Z,9.22
2022-12-31T11:41:23.680Z,10.42
2022-12-31T11:44:32.420Z,9.27
2022-12-31T11:47:56.499Z,10.49
2022-12-31T11:51:31.617Z,10.51
2022-12-31T11:54:36.059Z,10.49
2022-12-31T11:57:32.620Z,10.13
2022-12-31T12:00:20.820Z,10.11
2022-12-31T12:03:07.487Z,10.22
2022-12-31T12:05:53.537Z,10.28
2022-12-31T12:08:40.575Z,9.33
2022-12-31T12:11:30.194Z,9.39
2022-12-31T12:14:21.693Z,10.55
2022-12-31T12:17:10.798Z,10.52
2022-12-31T12:19:59.816Z,10.59
2022-12-31T12:22:52.464Z,10.61
2022-12-31T12:25:44.127Z,10.56
2022-12-31T12:28:44.344Z,9.54
2022-12-31T12:31:30.683Z,10.69
2022-12-31T12:34:23.611Z,10.72
2022-12-31T12:37:25.127Z,10.74
2022-12-31T12:40:29.819Z,10.76
2022-12-31T12:43:23.445Z,10.28
2022-12-31T12:46:28.694Z,9.98
2022-12-31T12:49:29.712Z,9.81
2022-12-31T12:52:59.561Z,10.80
2022-12-31T12:56:05.609Z,11.39
2022-12-31T12:59:19.526Z,11.54
2022-12-31T13:02:33.262Z,11.63
2022-12-31T13:05:28.224Z,11.49
2022-12-31T13:08:30.581Z,11.61
2022-12-31T13:12:07.807Z,10.59
2022-12-31T13:15:13.688Z,12.00
2022-12-31T13:18:16.067Z,12.07
2022-12-31T13:21:31.239Z,12.04
2022-12-31T13:24:20.942Z,11.99
2022-12-31T13:27:21.007Z,11.89
2022-12-31T13:30:19.501Z,11.76
2022-12-31T13:33:15.654Z,10.79
2022-12-31T13:36:10.566Z,10.35
2022-12-31T13:38:59.774Z,11.40
2022-12-31T13:41:52.383Z,10.14
2022-12-31T13:44:46.203Z,11.25
2022-12-31T13:47:45.242Z,9.85
2022-12-31T13:50:39.661Z,10.11
2022-12-31T13:53:31.790Z,11.11
2022-12-31T13:56:27.506Z,9.98
2022-12-31T13:59:27.389Z,10.61
2022-12-31T14:02:35.821Z,11.09
2022-12-31T14:05:47.624Z,11.05
2022-12-31T14:08:33.246Z,11.01
2022-12-31T14:11:21.880Z,10.98
2022-12-31T14:14:27.582Z,10.98
2022-12-31T14:17:19.037Z,10.04
2022-12-31T14:20:40.054Z,10.94
2022-12-31T14:23:35.090Z,10.94
2022-12-31T14:26:33.109Z,10.90
2022-12-31T14:29:38.264Z,10.95
2022-12-31T14:32:48.872Z,10.97
2022-12-31T14:36:12.430Z,10.98
2022-12-31T14:39:17.266Z,10.98
2022-12-31T14:42:10.636Z,10.72
2022-12-31T14:45:14.832Z,11.00
2022-12-31T14:48:21.592Z,10.78
2022-12-31T14:51:08.288Z,10.53
2022-12-31T14:53:56.908Z,10.55
2022-12-31T14:56:45.783Z,10.46
2022-12-31T14:59:35.612Z,10.61
2022-12-31T15:02:30.430Z,9.66
2022-12-31T15:05:20.947Z,10.75
2022-12-31T15:08:28.334Z,10.56
2022-12-31T15:11:51.656Z,10.71
2022-12-31T15:14:59.275Z,9.38
2022-12-31T15:18:00.882Z,10.08
2022-12-31T15:21:28.575Z,10.63
2022-12-31T15:24:17.755Z,9.66
2022-12-31T15:27:06.414Z,9.52
2022-12-31T15:29:53.074Z,10.62
2022-12-31T15:32:46.727Z,10.56
2022-12-31T15:35:47.336Z,10.64
2022-12-31T15:38:35.306Z,10.36
2022-12-31T15:41:26.830Z,10.69
2022-12-31T15:44:23.497Z,10.41
2022-12-31T15:47:18.001Z,10.69
2022-12-31T15:50:17.478Z,10.68
2022-12-31T15:53:05.196Z,10.60
2022-12-31T15:55:54.457Z,9.90
2022-12-31T15:58:40.429Z,10.05
2022-12-31T16:01:32.597Z,9.40
2022-12-31T16:04:18.501Z,10.51
2022-12-31T16:07:04.162Z,9.38
2022-12-31T16:09:54.696Z,10.46
2022-12-31T16:12:44.644Z,10.36
2022-12-31T16:15:32.801Z,9.50
2022-12-31T16:18:22.746Z,9.65
2022-12-31T16:21:37.197Z,10.32
2022-12-31T16:24:32.618Z,10.29
2022-12-31T16:27:18.522Z,10.19
2022-12-31T16:30:29.337Z,10.27
2022-12-31T16:33:15.459Z,10.21
2022-12-31T16:36:01.763Z,9.92
2022-12-31T16:38:47.480Z,8.91
2022-12-31T16:41:43.561Z,10.06
2022-12-31T16:44:30.252Z,10.05
2022-12-31T16:47:31.152Z,10.03
2022-12-31T16:50:21.912Z,8.84
2022-12-31T16:53:08.023Z,9.94
2022-12-31T16:56:00.140Z,9.91
2022-12-31T16:58:46.019Z,8.87
2022-12-31T17:01:35.996Z,9.92
2022-12-31T17:04:23.478Z,8.65
2022-12-31T17:07:27.611Z,9.91
2022-12-31T17:10:20.635Z,9.59
2022-12-31T17:13:29.293Z,9.31
2022-12-31T17:16:18.031Z,9.58
2022-12-31T17:19:03.974Z,8.65
2022-12-31T17:21:50.541Z,9.79
2022-12-31T17:24:36.628Z,8.62
2022-12-31T17:27:23.378Z,9.69
2022-12-31T17:30:27.664Z,9.68
2022-12-31T17:33:13.375Z,8.33
2022-12-31T17:36:22.348Z,9.54
2022-12-31T17:39:19.170Z,9.72
2022-12-31T17:42:05.042Z,9.35
2022-12-31T17:44:50.727Z,9.66
2022-12-31T17:47:41.452Z,9.69
2022-12-31T17:50:28.120Z,9.25
2022-12-31T17:53:14.942Z,9.74
2022-12-31T17:56:04.778Z,9.92
2022-12-31T17:58:53.569Z,8.80
2022-12-31T18:01:39.093Z,9.58
2022-12-31T18:04:26.929Z,9.73
2022-12-31T18:07:12.365Z,8.80
2022-12-31T18:09:58.333Z,9.97
2022-12-31T18:12:45.705Z,9.70
2022-12-31T18:15:31.728Z,9.94
2022-12-31T18:18:29.303Z,9.94
2022-12-31T18:21:29.166Z,9.72
2022-12-31T18:24:25.788Z,9.02
2022-12-31T18:27:17.988Z,9.96
2022-12-31T18:30:06.844Z,9.90
2022-12-31T18:32:54.118Z,10.00
2022-12-31T18:36:07.691Z,9.79
2022-12-31T18:38:46.179Z,9.99
2022-12-31T18:41:39.731Z,9.86
2022-12-31T18:44:25.085Z,9.78
2022-12-31T18:47:19.643Z,9.57
2022-12-31T18:50:06.753Z,10.04
2022-12-31T18:52:52.560Z,10.04
2022-12-31T18:55:41.178Z,9.77
2022-12-31T18:58:26.971Z,10.07
2022-12-31T19:01:23.085Z,10.10
2022-12-31T19:04:26.540Z,9.85
2022-12-31T19:07:17.293Z,10.12
2022-12-31T19:10:03.669Z,10.04
2022-12-31T19:12:51.096Z,9.75
2022-12-31T19:15:44.441Z,9.18
2022-12-31T19:18:30.058Z,9.62
2022-12-31T19:21:22.458Z,10.18
2022-12-31T19:24:27.332Z,10.04
2022-12-31T19:27:14.167Z,9.67
2022-12-31T19:30:01.582Z,10.15
2022-12-31T19:32:47.499Z,10.12
2022-12-31T19:35:33.797Z,8.96
2022-12-31T19:38:25.653Z,9.78
2022-12-31T19:41:19.713Z,9.13
2022-12-31T19:44:05.915Z,10.11
2022-12-31T19:46:52.992Z,9.95
2022-12-31T19:49:38.858Z,9.96
2022-12-31T19:52:24.399Z,10.02
2022-12-31T19:55:13.858Z,9.57
2022-12-31T19:57:59.155Z,9.86
2022-12-31T20:00:51.594Z,9.75
2022-12-31T20:03:40.092Z,9.29
2022-12-31T20:06:25.358Z,8.98
2022-12-31T20:09:11.758Z,9.50
2022-12-31T20:11:57.578Z,10.21
2022-12-31T20:14:44.519Z,9.87
2022-12-31T20:17:30.931Z,10.26
2022-12-31T20:20:18.467Z,10.01
2022-12-31T20:23:04.317Z,10.25
2022-12-31T20:25:58.074Z,9.36
2022-12-31T20:28:43.757Z,10.01
2022-12-31T20:31:30.381Z,10.17
2022-12-31T20:34:15.842Z,9.05
2022-12-31T20:37:01.677Z,9.85
2022-12-31T20:39:47.963Z,10.22
2022-12-31T20:42:36.639Z,9.32
2022-12-31T20:45:23.796Z,10.27
2022-12-31T20:48:11.156Z,9.48
2022-12-31T20:50:58.965Z,10.29
2022-12-31T20:53:55.571Z,10.29
2022-12-31T20:56:42.193Z,9.21
2022-12-31T20:59:29.380Z,10.26
2022-12-31T21:02:29.467Z,10.36
2022-12-31T21:05:21.866Z,10.00
2022-12-31T21:08:07.589Z,9.43
2022-12-31T21:10:53.580Z,10.43
2022-12-31T21:13:40.144Z,9.24
2022-12-31T21:16:27.356Z,9.46
2022-12-31T21:19:12.841Z,10.14
2022-12-31T21:21:59.667Z,10.43
2022-12-31T21:24:48.371Z,10.46
2022-12-31T21:27:39.182Z,9.21
2022-12-31T21:30:29.155Z,10.41
2022-12-31T21:33:22.511Z,10.19
2022-12-31T21:36:14.850Z,10.45
2022-12-31T21:39:01.259Z,9.15
2022-12-31T21:41:53.109Z,9.99
2022-12-31T21:44:51.171Z,9.95
2022-12-31T21:47:56.161Z,10.15
2022-12-31T21:50:55.903Z,10.43
2022-12-31T21:53:41.772Z,10.50
2022-12-31T21:56:36.433Z,10.52
2022-12-31T21:59:46.981Z,10.55
2022-12-31T22:02:58.959Z,10.44
2022-12-31T22:05:55.640Z,10.57
2022-12-31T22:08:51.465Z,10.27
2022-12-31T22:11:40.049Z,10.17
2022-12-31T22:14:35.909Z,10.29
2022-12-31T22:17:23.094Z,10.59
2022-12-31T22:20:28.720Z,10.39
2022-12-31T22:23:22.636Z,10.22
2022-12-31T22:26:11.738Z,10.30
2022-12-31T22:29:04.301Z,10.12
2022-12-31T22:31:50.682Z,10.28
2022-12-31T22:34:36.718Z,10.43
2022-12-31T22:37:55.187Z,10.15
2022-12-31T22:40:29.091Z,10.39
2022-12-31T22:43:19.328Z,10.55
2022-12-31T22:46:17.522Z,10.54
2022-12-31T22:49:06.628Z,9.99
2022-12-31T22:52:01.744Z,10.28
2022-12-31T22:54:50.565Z,10.15
2022-12-31T22:57:36.539Z,10.27
2022-12-31T23:00:37.526Z,10.50
2022-12-31T23:03:23.290Z,10.00
2022-12-31T23:06:08.848Z,10.49
2022-12-31T23:09:13.912Z,9.90
2022-12-31T23:12:00.971Z,10.46
2022-12-31T23:15:06.329Z,10.41
2022-12-31T23:18:11.161Z,10.43
2022-12-31T23:21:16.257Z,10.04
2022-12-31T23:24:04.417Z,8.97
2022-12-31T23:26:50.469Z,10.23
2022-12-31T23:29:46.227Z,10.26
2022-12-31T23:32:33.210Z,10.05
2022-12-31T23:35:19.013Z,9.82
2022-12-31T23:38:07.855Z,10.01
2022-12-31T23:40:53.108Z,10.25
2022-12-31T23:43:39.288Z,10.28
2022-12-31T23:46:25.808Z,10.26
2022-12-31T23:49:12.353Z,8.51
2022-12-31T23:51:58.068Z,10.17
2022-12-31T23:54:43.681Z,9.76
2022-12-31T23:57:32.271Z,10.17
